Time;durP1;ratioP1;P1;durP2;ratioP2;P2;SDS_P1;SDS_P2;PMS_P1;PMS_P2;Temp;Humidity;BMP_temperature;BMP_pressure;BME280_temperature;BME280_humidity;BME280_pressure;Samples;Min_cycle;Max_cycle;Signal;HPM_P1;HPM_P2
2023/08/31 00:00:33;;;;;;;5.85;2.45;;;;;;;;;;5014718;28;20026;-73
2023/08/31 00:03:00;;;;;;;9.57;2.65;;;;;;;;;;5008262;28;20472;-73
2023/08/31 00:05:28;;;;;;;7.03;2.28;;;;;;;;;;5009378;28;20041;-73
2023/08/31 00:07:54;;;;;;;8.90;2.42;;;;;;;;;;5005784;28;20021;-72
2023/08/31 00:10:20;;;;;;;12.68;2.63;;;;;;;;;;5002189;28;20180;-73
2023/08/31 00:12:46;;;;;;;5.85;2.33;;;;;;;;;;5001276;28;20475;-73
2023/08/31 00:15:11;;;;;;;7.35;2.30;;;;;;;;;;5012348;28;20030;-73
2023/08/31 00:17:37;;;;;;;7.70;2.25;;;;;;;;;;5005145;28;20084;-73
2023/08/31 00:20:11;;;;;;;5.57;2.15;;;;;;;;;;5012367;28;20037;-73
2023/08/31 00:22:37;;;;;;;7.03;2.35;;;;;;;;;;5009242;28;20487;-73
2023/08/31 00:25:05;;;;;;;5.15;2.00;;;;;;;;;;5006776;28;20034;-73
2023/08/31 00:27:32;;;;;;;6.80;2.42;;;;;;;;;;5015444;28;20038;-73
2023/08/31 00:29:58;;;;;;;6.22;2.35;;;;;;;;;;5006412;28;20034;-73
2023/08/31 00:32:24;;;;;;;8.00;2.60;;;;;;;;;;5012325;28;20044;-73
2023/08/31 00:34:50;;;;;;;4.70;1.95;;;;;;;;;;5017978;28;20480;-73
2023/08/31 00:37:16;;;;;;;6.60;2.13;;;;;;;;;;5007047;28;20033;-73
2023/08/31 00:39:43;;;;;;;8.43;2.42;;;;;;;;;;5004977;28;20108;-73
2023/08/31 00:42:09;;;;;;;6.38;2.13;;;;;;;;;;4994777;28;20402;-73
2023/08/31 00:44:35;;;;;;;7.20;2.30;;;;;;;;;;5010202;28;20022;-74
2023/08/31 00:47:04;;;;;;;10.10;2.88;;;;;;;;;;4998178;28;20096;-73
2023/08/31 00:49:29;;;;;;;6.45;2.30;;;;;;;;;;4998649;28;20026;-73
2023/08/31 00:51:57;;;;;;;4.72;2.22;;;;;;;;;;5007926;28;20508;-73
2023/08/31 00:54:23;;;;;;;9.95;2.70;;;;;;;;;;5011192;28;20030;-73
2023/08/31 00:56:54;;;;;;;4.70;2.22;;;;;;;;;;5007566;28;20034;-73
2023/08/31 00:59:20;;;;;;;6.68;2.35;;;;;;;;;;5023454;28;20041;-73
2023/08/31 01:01:57;;;;;;;9.88;2.90;;;;;;;;;;5017600;28;20030;-73
2023/08/31 01:04:53;;;;;;;6.03;2.20;;;;;;;;;;5009060;28;20033;-73
2023/08/31 01:07:31;;;;;;;7.70;2.92;;;;;;;;;;4993565;28;20022;-73
2023/08/31 01:10:08;;;;;;;5.47;2.13;;;;;;;;;;5016993;28;20049;-73
2023/08/31 01:12:47;;;;;;;8.45;2.45;;;;;;;;;;5010634;28;20041;-73
2023/08/31 01:15:15;;;;;;;7.90;2.40;;;;;;;;;;5003816;28;20038;-73
2023/08/31 01:17:49;;;;;;;6.57;2.08;;;;;;;;;;5005380;28;20109;-73
2023/08/31 01:20:23;;;;;;;7.00;2.35;;;;;;;;;;5006392;28;20037;-72
2023/08/31 01:23:00;;;;;;;4.82;1.83;;;;;;;;;;5018475;28;20404;-74
2023/08/31 01:25:27;;;;;;;7.47;2.67;;;;;;;;;;5001594;28;20480;-73
2023/08/31 01:27:53;;;;;;;6.68;2.65;;;;;;;;;;4997035;28;20038;-73
2023/08/31 01:30:18;;;;;;;6.22;2.47;;;;;;;;;;5014703;28;20045;-73
2023/08/31 01:32:47;;;;;;;10.48;2.28;;;;;;;;;;5014504;28;20022;-74
2023/08/31 01:35:17;;;;;;;8.30;2.95;;;;;;;;;;5001543;28;20036;-73
2023/08/31 01:37:51;;;;;;;;;;;;;;;;;;5023958;28;20033;-73
2023/08/31 01:40:27;;;;;;;9.85;2.72;;;;;;;;;;5016536;28;20240;-73
2023/08/31 01:42:55;;;;;;;7.10;1.98;;;;;;;;;;4992123;28;20103;-73
2023/08/31 01:45:22;;;;;;;7.30;2.50;;;;;;;;;;5023108;28;20022;-71
2023/08/31 01:47:49;;;;;;;4.15;1.90;;;;;;;;;;5017603;28;20060;-73
2023/08/31 01:50:15;;;;;;;8.73;2.60;;;;;;;;;;5003616;28;20480;-73
2023/08/31 01:52:41;;;;;;;10.07;2.85;;;;;;;;;;5013518;28;20058;-72
2023/08/31 01:55:07;;;;;;;7.78;2.72;;;;;;;;;;5010594;28;20060;-73
2023/08/31 01:57:33;;;;;;;6.38;2.42;;;;;;;;;;4995725;28;20565;-73
2023/08/31 02:00:10;;;;;;;10.13;2.75;;;;;;;;;;5010214;28;20575;-73
2023/08/31 02:02:41;;;;;;;8.93;2.50;;;;;;;;;;5011656;28;20067;-73
2023/08/31 02:05:08;;;;;;;7.85;2.53;;;;;;;;;;5011963;28;20041;-73
2023/08/31 02:07:34;;;;;;;8.60;2.63;;;;;;;;;;5019807;28;20022;-73
2023/08/31 02:10:01;;;;;;;7.53;2.30;;;;;;;;;;5015449;28;20092;-74
2023/08/31 02:12:27;;;;;;;10.43;2.60;;;;;;;;;;4998573;28;20105;-73
2023/08/31 02:14:53;;;;;;;5.78;2.10;;;;;;;;;;5022219;28;20025;-73
2023/08/31 02:17:19;;;;;;;8.15;2.60;;;;;;;;;;5009914;28;20105;-73
2023/08/31 02:19:45;;;;;;;12.30;2.70;;;;;;;;;;5005410;28;20037;-74
2023/08/31 02:22:12;;;;;;;9.32;2.80;;;;;;;;;;4990658;28;20568;-73
2023/08/31 02:24:39;;;;;;;9.73;3.20;;;;;;;;;;5004637;28;20551;-73
2023/08/31 02:27:05;;;;;;;19.23;3.30;;;;;;;;;;5000177;28;20186;-73
2023/08/31 02:29:31;;;;;;;11.52;2.88;;;;;;;;;;5006790;28;20045;-73
2023/08/31 02:31:58;;;;;;;5.03;2.33;;;;;;;;;;5007085;28;20033;-73
2023/08/31 02:34:24;;;;;;;9.55;2.42;;;;;;;;;;5019085;28;20106;-74
2023/08/31 02:36:50;;;;;;;8.25;2.50;;;;;;;;;;5006411;28;20097;-72
2023/08/31 02:39:16;;;;;;;7.78;3.70;;;;;;;;;;5019332;28;20034;-72
2023/08/31 02:41:41;;;;;;;9.82;3.22;;;;;;;;;;4998118;28;20037;-73
2023/08/31 02:44:07;;;;;;;10.40;3.00;;;;;;;;;;4995834;28;20038;-73
2023/08/31 02:46:33;;;;;;;9.85;2.60;;;;;;;;;;4995876;28;20429;-73
2023/08/31 02:48:59;;;;;;;7.13;2.70;;;;;;;;;;4989007;28;20042;-73
2023/08/31 02:51:24;;;;;;;11.40;3.30;;;;;;;;;;5020678;28;20025;-73
2023/08/31 02:53:50;;;;;;;16.33;4.32;;;;;;;;;;5016404;28;20041;-73
2023/08/31 02:56:16;;;;;;;14.25;4.38;;;;;;;;;;4992915;28;20045;-73
2023/08/31 02:58:42;;;;;;;7.45;2.80;;;;;;;;;;5026905;28;20037;-72
2023/08/31 03:01:11;;;;;;;8.43;2.88;;;;;;;;;;5005106;28;20088;-73
2023/08/31 03:03:41;;;;;;;7.43;2.42;;;;;;;;;;5008223;28;20052;-73
2023/08/31 03:06:08;;;;;;;6.18;2.65;;;;;;;;;;5006542;28;20014;-73
2023/08/31 03:08:37;;;;;;;8.27;2.67;;;;;;;;;;4997234;28;20056;-73
2023/08/31 03:11:05;;;;;;;12.35;3.00;;;;;;;;;;4993597;28;20030;-73
2023/08/31 03:13:32;;;;;;;12.02;3.53;;;;;;;;;;5009305;28;20055;-73
2023/08/31 03:15:59;;;;;;;12.90;3.33;;;;;;;;;;5017404;28;20025;-73
2023/08/31 03:18:24;;;;;;;7.53;2.97;;;;;;;;;;5016982;28;20084;-73
2023/08/31 03:20:50;;;;;;;9.60;2.58;;;;;;;;;;5025083;28;20404;-73
2023/08/31 03:23:17;;;;;;;6.70;2.67;;;;;;;;;;5008239;28;20101;-72
2023/08/31 03:25:43;;;;;;;9.23;2.67;;;;;;;;;;5007979;28;20026;-73
2023/08/31 03:28:09;;;;;;;8.23;2.60;;;;;;;;;;5022033;28;20586;-74
2023/08/31 03:30:35;;;;;;;5.85;1.88;;;;;;;;;;5015782;28;20025;-73
2023/08/31 03:33:02;;;;;;;8.45;2.60;;;;;;;;;;5011113;28;20025;-73
2023/08/31 03:35:28;;;;;;;9.82;3.22;;;;;;;;;;5008298;28;20507;-73
2023/08/31 03:37:57;;;;;;;8.75;2.83;;;;;;;;;;5010653;28;20084;-72
2023/08/31 03:40:23;;;;;;;8.13;2.80;;;;;;;;;;4980659;28;20408;-72
2023/08/31 03:42:50;;;;;;;9.98;3.00;;;;;;;;;;5000140;28;20038;-71
2023/08/31 03:45:16;;;;;;;8.88;3.03;;;;;;;;;;5007607;28;20502;-72
2023/08/31 03:47:42;;;;;;;7.85;2.92;;;;;;;;;;5008209;28;20118;-72
2023/08/31 03:50:10;;;;;;;10.73;3.00;;;;;;;;;;5008425;28;20037;-73
2023/08/31 03:52:36;;;;;;;9.60;2.72;;;;;;;;;;5001438;28;20052;-73
2023/08/31 03:55:02;;;;;;;9.05;2.83;;;;;;;;;;5004338;28;20495;-73
2023/08/31 03:57:28;;;;;;;10.15;3.53;;;;;;;;;;5008624;28;20037;-72
2023/08/31 03:59:59;;;;;;;8.60;2.88;;;;;;;;;;5013986;28;20022;-73
2023/08/31 04:02:25;;;;;;;7.75;3.10;;;;;;;;;;5015720;28;20503;-73
2023/08/31 04:04:51;;;;;;;6.07;2.70;;;;;;;;;;4975923;28;20030;-73
2023/08/31 04:07:17;;;;;;;5.35;2.40;;;;;;;;;;5008757;28;20519;-73
2023/08/31 04:09:43;;;;;;;6.53;2.53;;;;;;;;;;4993406;28;20030;-73
2023/08/31 04:12:09;;;;;;;11.60;3.25;;;;;;;;;;5009057;28;20034;-74
2023/08/31 04:14:34;;;;;;;8.27;3.30;;;;;;;;;;5022188;28;20495;-73
2023/08/31 04:17:00;;;;;;;8.10;3.03;;;;;;;;;;4993788;28;20547;-74
2023/08/31 04:19:26;;;;;;;12.70;3.20;;;;;;;;;;4992573;28;20026;-74
2023/08/31 04:21:52;;;;;;;11.13;3.38;;;;;;;;;;4993796;28;20162;-73
2023/08/31 04:24:18;;;;;;;8.32;2.92;;;;;;;;;;4993746;28;20034;-73
2023/08/31 04:26:44;;;;;;;10.52;2.70;;;;;;;;;;4993578;28;20030;-72
2023/08/31 04:29:10;;;;;;;9.07;2.70;;;;;;;;;;5008637;28;20041;-74
2023/08/31 04:31:37;;;;;;;11.48;2.70;;;;;;;;;;5004135;28;20022;-73
2023/08/31 04:34:04;;;;;;;6.40;2.35;;;;;;;;;;5001614;28;20096;-73
2023/08/31 04:36:30;;;;;;;5.15;2.15;;;;;;;;;;5019432;28;20038;-73
2023/08/31 04:38:55;;;;;;;13.18;2.75;;;;;;;;;;5012938;28;20076;-72
2023/08/31 04:41:21;;;;;;;11.35;3.53;;;;;;;;;;5012739;28;20048;-74
2023/08/31 04:43:50;;;;;;;8.90;2.80;;;;;;;;;;5012769;28;20030;-72
2023/08/31 04:46:15;;;;;;;8.98;2.65;;;;;;;;;;5027311;28;20029;-72
2023/08/31 04:48:41;;;;;;;9.48;3.22;;;;;;;;;;5011117;28;20034;-73
2023/08/31 04:51:39;;;;;;;7.75;2.90;;;;;;;;;;5000341;28;20053;-73
2023/08/31 04:54:05;;;;;;;11.57;2.63;;;;;;;;;;4999191;28;20037;-71
2023/08/31 04:56:35;;;;;;;12.18;2.90;;;;;;;;;;5009699;28;20439;-71
2023/08/31 04:59:01;;;;;;;13.63;3.20;;;;;;;;;;5020340;28;20032;-72
2023/08/31 05:01:26;;;;;;;15.30;3.25;;;;;;;;;;5023507;28;20105;-72
2023/08/31 05:03:52;;;;;;;11.43;2.65;;;;;;;;;;5018882;28;20030;-72
2023/08/31 05:06:18;;;;;;;8.27;3.05;;;;;;;;;;5021432;28;20407;-71
2023/08/31 05:08:49;;;;;;;9.13;2.47;;;;;;;;;;5013386;28;20420;-72
2023/08/31 05:11:15;;;;;;;10.90;3.08;;;;;;;;;;5009588;28;20092;-72
2023/08/31 05:13:43;;;;;;;11.10;2.97;;;;;;;;;;5022281;28;20509;-73
2023/08/31 05:16:09;;;;;;;11.05;3.05;;;;;;;;;;4997480;28;20026;-71
2023/08/31 05:18:35;;;;;;;10.40;2.85;;;;;;;;;;5006644;28;20336;-71
2023/08/31 05:21:03;;;;;;;14.60;2.90;;;;;;;;;;5022887;28;20483;-72
2023/08/31 05:23:29;;;;;;;9.77;2.88;;;;;;;;;;5020227;28;20018;-72
2023/08/31 05:25:56;;;;;;;13.98;3.67;;;;;;;;;;5019005;28;20052;-72
2023/08/31 05:28:22;;;;;;;12.57;3.75;;;;;;;;;;5019168;28;20048;-70
2023/08/31 05:30:52;;;;;;;12.10;4.30;;;;;;;;;;5019816;28;20131;-72
2023/08/31 05:33:19;;;;;;;9.63;4.07;;;;;;;;;;5021805;28;20030;-71
2023/08/31 05:35:44;;;;;;;6.05;2.88;;;;;;;;;;5023026;28;20319;-71
2023/08/31 05:38:11;;;;;;;7.82;3.17;;;;;;;;;;5021002;28;20044;-71
2023/08/31 05:40:37;;;;;;;9.95;2.95;;;;;;;;;;5016658;28;20021;-71
2023/08/31 05:43:03;;;;;;;8.93;2.97;;;;;;;;;;5015579;28;20393;-71
2023/08/31 05:45:33;;;;;;;6.80;2.53;;;;;;;;;;5019023;28;20447;-71
2023/08/31 05:47:59;;;;;;;6.18;2.22;;;;;;;;;;5010316;28;20033;-72
2023/08/31 05:50:25;;;;;;;6.75;2.40;;;;;;;;;;5019555;28;20033;-71
2023/08/31 05:52:51;;;;;;;8.60;2.60;;;;;;;;;;5019449;28;20056;-70
2023/08/31 05:55:16;;;;;;;8.77;2.78;;;;;;;;;;5011089;28;20484;-71
2023/08/31 05:57:42;;;;;;;10.95;3.63;;;;;;;;;;5014612;28;20026;-71
2023/08/31 06:00:09;;;;;;;13.15;3.15;;;;;;;;;;5015305;28;20455;-71
2023/08/31 06:02:38;;;;;;;7.18;2.00;;;;;;;;;;5011748;28;20041;-71
2023/08/31 06:05:05;;;;;;;6.55;2.92;;;;;;;;;;5022009;28;20022;-70
2023/08/31 06:07:31;;;;;;;5.80;2.05;;;;;;;;;;5019162;28;20040;-70
2023/08/31 06:09:57;;;;;;;8.13;2.08;;;;;;;;;;5019187;28;20034;-71
2023/08/31 06:12:23;;;;;;;9.93;2.88;;;;;;;;;;5018867;28;20124;-72
2023/08/31 06:14:50;;;;;;;13.55;2.70;;;;;;;;;;5006059;28;20112;-71
2023/08/31 06:17:16;;;;;;;9.25;2.63;;;;;;;;;;5018471;28;20116;-72
2023/08/31 06:19:42;;;;;;;8.80;2.38;;;;;;;;;;5034247;28;20044;-72
2023/08/31 06:22:08;;;;;;;7.70;2.65;;;;;;;;;;5013117;28;20070;-72
2023/08/31 06:24:34;;;;;;;10.50;2.60;;;;;;;;;;5022645;28;20064;-71
2023/08/31 06:27:00;;;;;;;9.52;2.40;;;;;;;;;;5024844;28;20040;-71
2023/08/31 06:29:26;;;;;;;4.70;1.80;;;;;;;;;;5024579;28;20022;-71
2023/08/31 06:31:52;;;;;;;5.13;2.25;;;;;;;;;;5019715;28;20041;-73
2023/08/31 06:34:17;;;;;;;9.00;2.20;;;;;;;;;;5030982;28;20052;-71
2023/08/31 06:36:43;;;;;;;5.75;2.15;;;;;;;;;;5014905;28;20325;-72
2023/08/31 06:39:09;;;;;;;8.50;2.05;;;;;;;;;;5023163;28;20097;-73
2023/08/31 06:41:36;;;;;;;4.72;1.95;;;;;;;;;;5022899;28;20105;-72
2023/08/31 06:44:02;;;;;;;9.82;1.98;;;;;;;;;;5022998;28;20105;-71
2023/08/31 06:46:29;;;;;;;9.73;2.33;;;;;;;;;;5024757;28;20517;-72
2023/08/31 06:48:54;;;;;;;6.47;2.45;;;;;;;;;;5025914;28;20479;-71
2023/08/31 06:51:20;;;;;;;8.40;2.90;;;;;;;;;;5025134;28;20129;-72
2023/08/31 06:53:47;;;;;;;5.05;1.90;;;;;;;;;;5022539;28;20046;-72
2023/08/31 06:56:13;;;;;;;9.25;2.50;;;;;;;;;;5030953;28;20558;-73
2023/08/31 06:58:38;;;;;;;9.65;2.33;;;;;;;;;;5034212;28;20044;-72
2023/08/31 07:01:07;;;;;;;10.02;2.40;;;;;;;;;;5043496;28;20102;-72
2023/08/31 07:03:33;;;;;;;6.15;2.13;;;;;;;;;;5022880;28;20026;-71
2023/08/31 07:05:59;;;;;;;7.13;2.30;;;;;;;;;;5022826;28;20052;-69
2023/08/31 07:08:24;;;;;;;6.10;2.00;;;;;;;;;;5024497;28;20166;-70
2023/08/31 07:10:50;;;;;;;7.82;2.35;;;;;;;;;;5025310;28;20029;-70
2023/08/31 07:13:16;;;;;;;9.02;3.30;;;;;;;;;;5025285;28;20369;-70
2023/08/31 07:15:42;;;;;;;5.72;2.45;;;;;;;;;;5013955;28;20109;-71
2023/08/31 07:18:08;;;;;;;8.35;2.25;;;;;;;;;;5014314;28;20442;-71
2023/08/31 07:20:34;;;;;;;8.63;2.50;;;;;;;;;;5014161;28;20049;-71
2023/08/31 07:23:00;;;;;;;8.45;3.03;;;;;;;;;;5014259;28;20034;-70
2023/08/31 07:25:27;;;;;;;10.07;2.42;;;;;;;;;;5013963;28;20040;-70
2023/08/31 07:27:53;;;;;;;10.68;3.00;;;;;;;;;;5020292;28;20416;-72
2023/08/31 07:30:18;;;;;;;5.45;2.28;;;;;;;;;;5040538;28;20111;-70
2023/08/31 07:32:44;;;;;;;6.40;2.33;;;;;;;;;;5013758;28;20495;-71
2023/08/31 07:35:10;;;;;;;7.60;2.47;;;;;;;;;;5029079;28;20041;-71
2023/08/31 07:37:37;;;;;;;8.88;2.35;;;;;;;;;;5021847;28;20017;-74
2023/08/31 07:40:08;;;;;;;4.63;2.30;;;;;;;;;;5013780;28;20029;-72
2023/08/31 07:42:35;;;;;;;5.13;2.28;;;;;;;;;;5015864;28;20292;-73
2023/08/31 07:45:00;;;;;;;7.45;3.00;;;;;;;;;;5025641;28;20017;-73
2023/08/31 07:47:26;;;;;;;8.95;2.67;;;;;;;;;;5025164;28;20384;-74
2023/08/31 07:49:52;;;;;;;6.60;2.65;;;;;;;;;;5033996;28;20021;-73
2023/08/31 07:52:17;;;;;;;9.27;2.20;;;;;;;;;;5033830;28;20068;-72
2023/08/31 07:54:43;;;;;;;8.77;2.55;;;;;;;;;;5034871;28;20026;-72
2023/08/31 07:57:09;;;;;;;7.80;2.53;;;;;;;;;;5034485;28;20475;-72
2023/08/31 07:59:34;;;;;;;7.07;2.85;;;;;;;;;;5034641;28;20073;-73
2023/08/31 08:02:00;;;;;;;12.27;3.40;;;;;;;;;;5033599;28;20037;-73
2023/08/31 08:04:27;;;;;;;6.90;2.35;;;;;;;;;;5020822;28;20030;-71
2023/08/31 08:06:54;;;;;;;8.95;2.47;;;;;;;;;;5026315;28;20510;-72
2023/08/31 08:09:22;;;;;;;5.18;2.40;;;;;;;;;;5016841;28;20047;-71
2023/08/31 08:11:48;;;;;;;7.32;2.70;;;;;;;;;;5023877;28;20529;-72
2023/08/31 08:14:15;;;;;;;7.60;3.38;;;;;;;;;;5018427;28;20026;-72
2023/08/31 08:16:41;;;;;;;9.32;2.60;;;;;;;;;;5014794;28;20511;-72
2023/08/31 08:19:07;;;;;;;8.48;2.75;;;;;;;;;;5014754;28;20038;-71
2023/08/31 08:21:34;;;;;;;7.85;2.67;;;;;;;;;;5018944;28;20034;-73
2023/08/31 08:23:59;;;;;;;7.05;1.85;;;;;;;;;;5024467;28;20025;-72
2023/08/31 08:26:25;;;;;;;7.93;2.33;;;;;;;;;;5032763;28;20471;-73
2023/08/31 08:28:51;;;;;;;6.35;1.88;;;;;;;;;;5032664;28;20025;-72
2023/08/31 08:31:16;;;;;;;8.38;2.70;;;;;;;;;;5027992;28;20037;-72
2023/08/31 08:33:42;;;;;;;6.13;2.60;;;;;;;;;;5017005;28;20103;-72
2023/08/31 08:36:08;;;;;;;11.20;2.97;;;;;;;;;;5012256;28;20068;-72
2023/08/31 08:38:35;;;;;;;6.78;2.33;;;;;;;;;;5021514;28;20127;-72
2023/08/31 08:41:06;;;;;;;8.15;2.00;;;;;;;;;;5032369;28;20068;-72
2023/08/31 08:43:33;;;;;;;7.55;2.40;;;;;;;;;;5032188;28;20053;-73
2023/08/31 08:46:04;;;;;;;7.95;2.50;;;;;;;;;;5030906;28;20048;-72
2023/08/31 08:48:30;;;;;;;5.95;2.28;;;;;;;;;;5032257;28;20108;-73
2023/08/31 08:50:57;;;;;;;8.52;2.83;;;;;;;;;;5032242;28;20479;-73
2023/08/31 08:53:22;;;;;;;5.60;2.20;;;;;;;;;;5032163;28;20038;-72
2023/08/31 08:55:48;;;;;;;8.45;2.38;;;;;;;;;;5030618;28;20026;-72
2023/08/31 08:58:14;;;;;;;12.80;3.90;;;;;;;;;;5031813;28;20100;-72
2023/08/31 09:00:41;;;;;;;9.55;2.42;;;;;;;;;;5031866;28;20032;-71
2023/08/31 09:03:07;;;;;;;6.75;2.30;;;;;;;;;;5031858;28;20041;-73
2023/08/31 09:05:33;;;;;;;7.40;2.72;;;;;;;;;;5031887;28;20104;-72
2023/08/31 09:08:13;;;;;;;7.88;2.78;;;;;;;;;;5031522;28;20044;-74
2023/08/31 09:10:41;;;;;;;9.02;2.78;;;;;;;;;;5031972;28;20057;-73
2023/08/31 09:13:08;;;;;;;8.25;2.90;;;;;;;;;;5031391;28;20116;-72
2023/08/31 09:15:47;;;;;;;5.85;2.08;;;;;;;;;;5031733;28;20025;-73
2023/08/31 09:18:18;;;;;;;8.98;2.75;;;;;;;;;;5031461;28;20033;-73
2023/08/31 09:20:47;;;;;;;5.68;2.28;;;;;;;;;;5025758;28;20045;-73
2023/08/31 09:23:14;;;;;;;10.27;2.50;;;;;;;;;;5009288;28;20037;-72
2023/08/31 09:25:48;;;;;;;12.93;3.22;;;;;;;;;;5012475;28;20034;-73
2023/08/31 09:28:16;;;;;;;8.05;2.33;;;;;;;;;;5004307;28;20045;-73
2023/08/31 09:30:42;;;;;;;6.53;2.70;;;;;;;;;;5015743;28;20017;-73
2023/08/31 09:33:09;;;;;;;8.60;2.80;;;;;;;;;;5014778;28;20086;-72
2023/08/31 09:35:57;;;;;;;7.00;2.88;;;;;;;;;;5019167;28;20419;-72
2023/08/31 09:38:23;;;;;;;8.05;3.00;;;;;;;;;;5013649;28;20499;-72
2023/08/31 09:40:49;;;;;;;5.93;2.80;;;;;;;;;;5021044;28;20086;-72
2023/08/31 09:43:23;;;;;;;9.05;2.95;;;;;;;;;;5003054;28;20090;-72
2023/08/31 09:45:52;;;;;;;10.65;2.78;;;;;;;;;;5019134;28;20495;-72
2023/08/31 09:48:19;;;;;;;5.65;2.67;;;;;;;;;;5014541;28;20125;-72
2023/08/31 09:50:45;;;;;;;7.75;2.88;;;;;;;;;;5016337;28;20033;-71
2023/08/31 09:53:12;;;;;;;6.78;2.30;;;;;;;;;;5019641;28;20120;-72
2023/08/31 09:55:42;;;;;;;12.23;3.40;;;;;;;;;;5011451;28;20053;-72
2023/08/31 09:58:09;;;;;;;7.18;2.70;;;;;;;;;;5010796;28;20446;-72
2023/08/31 10:00:36;;;;;;;4.47;2.17;;;;;;;;;;5010768;28;20106;-72
2023/08/31 10:03:05;;;;;;;8.82;2.60;;;;;;;;;;5010702;28;20041;-72
2023/08/31 10:05:32;;;;;;;5.07;2.60;;;;;;;;;;5011127;28;20080;-71
2023/08/31 10:07:58;;;;;;;5.00;2.25;;;;;;;;;;5010891;28;20092;-72
2023/08/31 10:10:24;;;;;;;8.00;3.17;;;;;;;;;;5011040;28;20033;-71
2023/08/31 10:12:51;;;;;;;8.52;2.60;;;;;;;;;;5011304;28;20045;-73
2023/08/31 10:15:19;;;;;;;7.40;2.17;;;;;;;;;;5011334;28;20391;-72
2023/08/31 10:17:46;;;;;;;4.55;2.40;;;;;;;;;;5011495;28;20141;-72
2023/08/31 10:20:15;;;;;;;11.50;3.05;;;;;;;;;;5010873;28;20041;-72
2023/08/31 10:22:41;;;;;;;9.13;3.22;;;;;;;;;;5011325;28;20399;-74
2023/08/31 10:25:09;;;;;;;11.32;3.20;;;;;;;;;;5011680;28;20113;-74
2023/08/31 10:27:50;;;;;;;5.70;2.42;;;;;;;;;;5010616;28;20050;-74
2023/08/31 10:30:22;;;;;;;5.88;2.40;;;;;;;;;;5018849;28;20045;-74
2023/08/31 10:33:09;;;;;;;7.43;2.30;;;;;;;;;;5027211;28;20033;-73
2023/08/31 10:35:47;;;;;;;9.70;3.15;;;;;;;;;;5029670;28;20077;-73
2023/08/31 10:38:34;;;;;;;8.65;2.80;;;;;;;;;;5029178;28;20034;-72
2023/08/31 10:41:05;;;;;;;5.97;2.42;;;;;;;;;;5029933;28;20052;-72
2023/08/31 10:43:50;;;;;;;8.48;3.38;;;;;;;;;;5030752;28;20045;-72
2023/08/31 10:46:34;;;;;;;6.90;2.80;;;;;;;;;;5030522;28;20056;-74
2023/08/31 10:49:02;;;;;;;6.57;3.00;;;;;;;;;;5030763;28;20041;-72
2023/08/31 10:51:32;;;;;;;7.93;2.70;;;;;;;;;;5030576;28;20029;-72
2023/08/31 10:54:13;;;;;;;8.43;2.45;;;;;;;;;;5030561;28;20048;-72
2023/08/31 10:57:08;;;;;;;5.47;2.50;;;;;;;;;;5030008;28;20033;-72
2023/08/31 10:59:53;;;;;;;6.43;2.58;;;;;;;;;;5029682;28;20049;-73
2023/08/31 11:02:41;;;;;;;6.47;2.40;;;;;;;;;;5029043;28;20034;-72
2023/08/31 11:05:12;;;;;;;7.25;2.83;;;;;;;;;;5030941;28;20403;-72
2023/08/31 11:07:48;;;;;;;7.97;2.53;;;;;;;;;;5029446;28;20081;-72
2023/08/31 11:10:16;;;;;;;6.43;2.60;;;;;;;;;;5032985;28;20040;-72
2023/08/31 11:12:44;;;;;;;4.20;2.35;;;;;;;;;;5034347;28;20028;-72
2023/08/31 11:15:15;;;;;;;6.40;2.53;;;;;;;;;;5034025;28;20052;-70
2023/08/31 11:17:42;;;;;;;10.85;3.15;;;;;;;;;;5034575;28;20485;-72
2023/08/31 11:20:09;;;;;;;5.53;2.65;;;;;;;;;;5034411;28;20033;-72
2023/08/31 11:22:40;;;;;;;5.20;2.97;;;;;;;;;;5033983;28;20037;-71
2023/08/31 11:25:08;;;;;;;5.75;2.78;;;;;;;;;;5034279;28;20030;-71
2023/08/31 11:27:33;;;;;;;22.50;3.38;;;;;;;;;;5014294;28;20561;-72
2023/08/31 11:30:00;;;;;;;7.60;3.05;;;;;;;;;;5025663;28;20081;-72
2023/08/31 11:32:26;;;;;;;8.25;2.65;;;;;;;;;;5024694;28;20024;-71
2023/08/31 11:34:53;;;;;;;6.85;2.42;;;;;;;;;;5039817;28;20083;-73
2023/08/31 11:37:20;;;;;;;8.90;2.97;;;;;;;;;;5033301;28;20057;-72
2023/08/31 11:39:53;;;;;;;5.60;2.92;;;;;;;;;;5025530;28;20029;-71
2023/08/31 11:42:20;;;;;;;8.05;2.65;;;;;;;;;;4994067;28;20081;-70
2023/08/31 11:44:52;;;;;;;8.30;2.92;;;;;;;;;;4994680;28;20057;-71
2023/08/31 11:47:19;;;;;;;7.67;2.93;;;;;;;;;;4994478;28;20116;-71
2023/08/31 11:49:46;;;;;;;5.43;2.95;;;;;;;;;;5021929;28;20049;-72
2023/08/31 11:52:14;;;;;;;7.22;3.13;;;;;;;;;;5032524;28;20080;-71
2023/08/31 11:54:42;;;;;;;4.70;2.58;;;;;;;;;;5028877;28;20110;-72
2023/08/31 11:57:11;;;;;;;8.55;2.80;;;;;;;;;;5013409;28;20070;-73
2023/08/31 11:59:38;;;;;;;6.10;2.60;;;;;;;;;;5013574;28;20018;-72
2023/08/31 12:02:08;;;;;;;7.30;3.08;;;;;;;;;;5012821;28;20034;-72
2023/08/31 12:04:42;;;;;;;5.15;2.60;;;;;;;;;;5002635;28;20526;-72
2023/08/31 12:07:08;;;;;;;7.13;2.95;;;;;;;;;;4993154;28;20508;-73
2023/08/31 12:09:35;;;;;;;6.57;2.78;;;;;;;;;;4993346;28;20042;-72
2023/08/31 12:12:01;;;;;;;6.53;2.80;;;;;;;;;;4992488;28;20533;-72
2023/08/31 12:14:28;;;;;;;4.57;2.35;;;;;;;;;;5000063;28;20116;-72
2023/08/31 12:17:03;;;;;;;4.57;2.20;;;;;;;;;;5031507;28;20069;-71
2023/08/31 12:19:31;;;;;;;6.22;2.70;;;;;;;;;;5023997;28;20044;-72
2023/08/31 12:21:57;;;;;;;6.15;2.58;;;;;;;;;;5000074;28;20066;-72
2023/08/31 12:24:23;;;;;;;8.27;3.10;;;;;;;;;;4992177;28;20045;-72
2023/08/31 12:26:55;;;;;;;5.95;3.00;;;;;;;;;;4993675;28;20392;-71
2023/08/31 12:29:21;;;;;;;6.00;2.65;;;;;;;;;;4993517;28;20054;-71
2023/08/31 12:31:47;;;;;;;5.40;2.65;;;;;;;;;;4991837;28;20061;-71
2023/08/31 12:34:13;;;;;;;5.90;2.40;;;;;;;;;;4993819;28;20034;-71
2023/08/31 12:36:41;;;;;;;6.60;3.15;;;;;;;;;;4993525;28;20081;-72
2023/08/31 12:39:09;;;;;;;6.75;2.70;;;;;;;;;;4994642;28;20034;-72
2023/08/31 12:41:36;;;;;;;7.47;2.80;;;;;;;;;;4994382;28;20041;-72
2023/08/31 12:44:06;;;;;;;5.53;2.70;;;;;;;;;;4994940;28;20041;-71
2023/08/31 12:46:32;;;;;;;4.07;2.50;;;;;;;;;;4994069;28;20052;-71
2023/08/31 12:49:00;;;;;;;7.93;2.70;;;;;;;;;;4993317;28;20101;-72
2023/08/31 12:51:26;;;;;;;8.98;2.72;;;;;;;;;;4994390;28;20034;-72
2023/08/31 12:53:51;;;;;;;8.50;3.28;;;;;;;;;;4993790;28;20439;-72
2023/08/31 12:56:21;;;;;;;5.50;3.08;;;;;;;;;;4992740;28;20042;-72
2023/08/31 12:58:51;;;;;;;6.30;2.58;;;;;;;;;;4992327;28;20018;-72
2023/08/31 13:01:18;;;;;;;8.38;2.60;;;;;;;;;;4998623;28;20118;-71
2023/08/31 13:03:44;;;;;;;9.13;3.20;;;;;;;;;;5010426;28;20113;-72
2023/08/31 13:06:10;;;;;;;7.85;2.78;;;;;;;;;;5011755;28;20038;-70
2023/08/31 13:08:36;;;;;;;9.75;3.00;;;;;;;;;;5010833;28;20533;-70
2023/08/31 13:11:03;;;;;;;6.53;3.00;;;;;;;;;;5010624;28;20045;-70
2023/08/31 13:13:29;;;;;;;6.30;2.90;;;;;;;;;;5011914;28;20117;-71
2023/08/31 13:15:55;;;;;;;8.35;3.05;;;;;;;;;;5011911;28;20192;-70
2023/08/31 13:18:20;;;;;;;6.97;3.28;;;;;;;;;;5026549;28;20026;-71
2023/08/31 13:20:52;;;;;;;8.00;3.13;;;;;;;;;;5012365;28;20038;-72
2023/08/31 13:23:19;;;;;;;9.27;3.07;;;;;;;;;;5012538;28;20065;-71
2023/08/31 13:25:45;;;;;;;7.82;2.97;;;;;;;;;;5014974;28;20271;-73
2023/08/31 13:28:10;;;;;;;9.15;3.10;;;;;;;;;;4991888;28;20046;-71
2023/08/31 13:30:36;;;;;;;6.32;3.00;;;;;;;;;;5004856;28;20064;-73
2023/08/31 13:33:04;;;;;;;10.38;4.20;;;;;;;;;;4999412;28;20046;-72
2023/08/31 13:35:30;;;;;;;5.20;2.85;;;;;;;;;;4995307;28;20021;-70
2023/08/31 13:37:56;;;;;;;5.75;2.88;;;;;;;;;;5002561;28;20041;-71
2023/08/31 13:40:21;;;;;;;11.15;4.00;;;;;;;;;;5001055;28;20029;-72
2023/08/31 13:43:02;;;;;;;6.55;3.08;;;;;;;;;;5007698;28;20029;-72
2023/08/31 13:45:32;;;;;;;5.97;3.30;;;;;;;;;;4997433;28;20042;-73
2023/08/31 13:48:04;;;;;;;7.03;3.08;;;;;;;;;;5010032;28;20026;-72
2023/08/31 13:50:31;;;;;;;6.97;3.33;;;;;;;;;;5009456;28;20037;-72
2023/08/31 13:52:57;;;;;;;6.78;3.28;;;;;;;;;;5010325;28;20523;-72
2023/08/31 13:55:23;;;;;;;7.18;3.47;;;;;;;;;;5007347;28;20033;-71
2023/08/31 13:57:49;;;;;;;7.07;3.20;;;;;;;;;;5010390;28;20095;-71
2023/08/31 14:00:15;;;;;;;8.80;3.72;;;;;;;;;;5020805;28;20038;-71
2023/08/31 14:02:43;;;;;;;5.53;3.05;;;;;;;;;;5046538;28;20033;-71
2023/08/31 14:05:10;;;;;;;5.90;2.90;;;;;;;;;;5031067;28;20041;-71
2023/08/31 14:07:36;;;;;;;7.90;2.90;;;;;;;;;;5030660;28;20029;-71
2023/08/31 14:10:06;;;;;;;7.13;3.08;;;;;;;;;;5030795;28;20048;-71
2023/08/31 14:12:33;;;;;;;7.63;3.10;;;;;;;;;;5030909;28;20049;-70
2023/08/31 14:15:00;;;;;;;5.30;2.75;;;;;;;;;;5026428;28;20025;-70
2023/08/31 14:17:27;;;;;;;7.60;3.13;;;;;;;;;;4991424;28;20037;-71
2023/08/31 14:19:52;;;;;;;7.30;3.80;;;;;;;;;;4999787;28;20451;-70
2023/08/31 14:22:18;;;;;;;5.82;3.38;;;;;;;;;;4998356;28;20037;-70
2023/08/31 14:24:44;;;;;;;5.95;3.10;;;;;;;;;;4998348;28;20027;-70
2023/08/31 14:27:11;;;;;;;5.53;3.10;;;;;;;;;;5007050;28;20034;-70
2023/08/31 14:29:37;;;;;;;5.47;3.00;;;;;;;;;;5011331;28;20024;-70
2023/08/31 14:32:03;;;;;;;5.65;3.00;;;;;;;;;;5008526;28;20034;-70
2023/08/31 14:34:28;;;;;;;6.53;2.85;;;;;;;;;;5010686;28;20030;-70
2023/08/31 14:36:57;;;;;;;6.93;3.38;;;;;;;;;;5010382;28;20159;-70
2023/08/31 14:39:29;;;;;;;6.38;2.85;;;;;;;;;;5002599;28;20026;-69
2023/08/31 14:41:57;;;;;;;7.97;3.50;;;;;;;;;;5010239;28;20029;-70
2023/08/31 14:44:24;;;;;;;6.90;2.70;;;;;;;;;;5014000;28;20036;-69